createdAt,value
2019-01-21T05:31:08.188Z,19.32
2019-01-21T05:32:08.127Z,19.32
2019-01-21T05:33:08.119Z,19.29
2019-01-21T05:34:08.113Z,19.36
2019-01-21T05:35:08.108Z,19.36
2019-01-21T05:36:08.154Z,19.38
2019-01-21T05:37:08.107Z,19.33
2019-01-21T05:38:08.101Z,19.50
2019-01-21T05:39:08.104Z,19.50
2019-01-21T05:40:08.097Z,19.58
2019-01-21T05:41:08.101Z,19.54
2019-01-21T05:42:08.098Z,19.55
2019-01-21T05:43:08.099Z,19.57
2019-01-21T05:44:08.100Z,19.55
2019-01-21T05:45:08.102Z,19.58
2019-01-21T05:46:08.105Z,19.68
2019-01-21T05:47:08.107Z,19.72
2019-01-21T05:48:08.107Z,19.73
2019-01-21T05:49:08.112Z,19.70
2019-01-21T05:50:08.111Z,19.73
2019-01-21T05:51:08.117Z,19.79
2019-01-21T05:52:08.123Z,19.94
2019-01-21T05:53:08.122Z,19.78
2019-01-21T05:54:08.124Z,19.90
2019-01-21T05:55:08.127Z,19.83
2019-01-21T05:56:08.133Z,19.94
2019-01-21T05:57:08.139Z,19.91
2019-01-21T05:58:08.136Z,19.97
2019-01-21T05:59:08.141Z,19.94
2019-01-21T06:00:08.144Z,19.93
2019-01-21T06:01:08.146Z,19.93
2019-01-21T06:02:08.200Z,19.95
2019-01-21T06:03:08.154Z,19.94
2019-01-21T06:04:08.158Z,19.95
2019-01-21T06:05:08.164Z,19.94
2019-01-21T06:06:08.166Z,19.91
2019-01-21T06:07:08.168Z,20.00
2019-01-21T06:08:08.173Z,19.95
2019-01-21T06:09:08.180Z,19.93
2019-01-21T06:10:08.229Z,19.94
2019-01-21T06:11:08.186Z,19.90
2019-01-21T06:12:08.190Z,19.95
2019-01-21T06:13:08.194Z,19.93
2019-01-21T06:14:08.198Z,19.98
2019-01-21T06:15:08.204Z,19.98
2019-01-21T06:16:08.207Z,19.93
2019-01-21T06:17:08.211Z,19.98
2019-01-21T06:18:08.217Z,20.05
2019-01-21T06:19:09.411Z,19.95
2019-01-21T06:20:08.225Z,20.08
2019-01-21T06:21:08.230Z,20.08
2019-01-21T06:22:08.234Z,20.06
2019-01-21T06:23:08.238Z,20.12
2019-01-21T06:24:08.241Z,20.08
2019-01-21T06:25:08.247Z,20.10
2019-01-21T06:26:08.253Z,20.23
2019-01-21T06:27:08.256Z,20.25
2019-01-21T06:28:08.261Z,20.21
2019-01-21T06:29:08.265Z,20.20
2019-01-21T06:30:08.271Z,20.25
2019-01-21T06:31:08.275Z,20.16
2019-01-21T06:32:08.278Z,20.15
2019-01-21T06:33:08.283Z,20.33
2019-01-21T06:34:08.289Z,20.35
2019-01-21T06:35:08.295Z,20.34
2019-01-21T06:36:08.298Z,20.35
2019-01-21T06:37:08.302Z,20.34
2019-01-21T06:38:08.309Z,20.35
2019-01-21T06:39:08.313Z,20.31
2019-01-21T06:40:08.318Z,20.33
2019-01-21T06:41:08.320Z,20.28
2019-01-21T06:42:08.331Z,20.31
2019-01-21T06:43:08.332Z,20.31
2019-01-21T06:44:08.337Z,20.33
2019-01-21T06:45:08.371Z,20.34
2019-01-21T06:46:08.354Z,20.33
2019-01-21T06:47:08.350Z,20.30
2019-01-21T06:48:08.354Z,20.28
2019-01-21T06:49:08.362Z,20.31
2019-01-21T06:50:08.565Z,20.30
2019-01-21T06:51:08.371Z,20.30
2019-01-21T06:52:08.374Z,20.33
2019-01-21T06:53:08.379Z,20.34
2019-01-21T06:54:08.385Z,20.25
2019-01-21T06:55:08.390Z,20.33
2019-01-21T06:56:08.393Z,20.35
2019-01-21T06:57:08.401Z,20.28
2019-01-21T06:58:08.403Z,20.21
2019-01-21T06:59:08.411Z,20.23
2019-01-21T07:00:08.413Z,20.18
2019-01-21T07:01:08.419Z,20.27
2019-01-21T07:02:08.424Z,20.30
2019-01-21T07:03:08.432Z,20.28
2019-01-21T07:04:08.432Z,20.30
2019-01-21T07:05:08.445Z,20.34
2019-01-21T07:06:08.443Z,20.35
2019-01-21T07:07:08.449Z,20.33
2019-01-21T07:08:08.453Z,20.34
2019-01-21T07:09:08.622Z,20.28
2019-01-21T07:10:08.464Z,20.31
2019-01-21T07:11:08.468Z,20.33
2019-01-21T07:12:08.472Z,20.34
2019-01-21T07:13:08.477Z,20.34
2019-01-21T07:14:08.532Z,20.35
2019-01-21T07:15:08.488Z,20.31
2019-01-21T07:16:08.492Z,20.34
2019-01-21T07:17:08.504Z,20.39
2019-01-21T07:18:08.503Z,20.34
2019-01-21T07:19:11.072Z,20.31
2019-01-21T07:20:08.511Z,20.33
2019-01-21T07:21:08.515Z,20.38
2019-01-21T07:22:08.523Z,20.46
2019-01-21T07:23:08.528Z,20.35
2019-01-21T07:24:08.531Z,20.39
2019-01-21T07:25:08.536Z,20.42
2019-01-21T07:26:08.542Z,20.39
2019-01-21T07:27:08.548Z,20.34
2019-01-21T07:28:08.550Z,20.33
2019-01-21T07:29:08.557Z,20.33
2019-01-21T07:30:08.561Z,20.33
2019-01-21T07:31:08.568Z,20.30
2019-01-21T07:32:08.569Z,20.33
2019-01-21T07:33:08.575Z,20.31
2019-01-21T07:34:08.601Z,20.31
2019-01-21T07:35:08.586Z,20.35
2019-01-21T07:36:08.653Z,20.28
2019-01-21T07:37:08.594Z,20.35
2019-01-21T07:38:08.601Z,20.31
2019-01-21T07:39:08.604Z,20.30
2019-01-21T07:40:08.613Z,20.28
2019-01-21T07:41:08.614Z,20.25
2019-01-21T07:42:08.619Z,20.20
2019-01-21T07:43:08.626Z,20.20
2019-01-21T07:44:08.629Z,20.25
2019-01-21T07:45:08.634Z,20.31
2019-01-21T07:46:08.641Z,20.30
2019-01-21T07:47:08.646Z,20.28
2019-01-21T07:48:08.649Z,20.31
2019-01-21T07:49:08.655Z,20.39
2019-01-21T07:50:08.659Z,20.34
2019-01-21T07:51:08.666Z,20.33
2019-01-21T07:52:08.668Z,20.35
2019-01-21T07:53:08.675Z,20.33
2019-01-21T07:54:08.681Z,20.34
2019-01-21T07:55:08.685Z,20.35
2019-01-21T07:56:08.690Z,20.38
2019-01-21T07:57:08.694Z,20.43
2019-01-21T07:58:08.699Z,20.35
2019-01-21T07:59:08.704Z,20.43
2019-01-21T08:00:08.707Z,20.42
2019-01-21T08:01:08.715Z,20.39
2019-01-21T08:02:08.719Z,20.46
2019-01-21T08:03:08.724Z,20.43
2019-01-21T08:04:08.728Z,20.51
2019-01-21T08:05:08.735Z,20.47
2019-01-21T08:06:08.739Z,20.47
2019-01-21T08:07:08.742Z,20.46
2019-01-21T08:08:08.762Z,20.43
2019-01-21T08:09:08.753Z,20.49
2019-01-21T08:10:08.757Z,20.31
2019-01-21T08:11:08.764Z,20.28
2019-01-21T08:12:08.772Z,20.38
2019-01-21T08:13:08.774Z,20.38
2019-01-21T08:14:08.778Z,20.42
2019-01-21T08:15:08.784Z,20.34
2019-01-21T08:16:08.789Z,20.31
2019-01-21T08:17:08.793Z,20.35
2019-01-21T08:18:08.798Z,20.39
2019-01-21T08:19:08.804Z,20.28
2019-01-21T08:20:08.811Z,20.31
2019-01-21T08:21:08.812Z,20.34
2019-01-21T08:22:08.822Z,20.34
2019-01-21T08:23:08.827Z,20.23
2019-01-21T08:24:08.826Z,20.34
2019-01-21T08:25:08.831Z,20.25
2019-01-21T08:26:08.838Z,20.31
2019-01-21T08:27:08.843Z,20.31
2019-01-21T08:28:08.847Z,20.39
2019-01-21T08:29:08.852Z,20.35
2019-01-21T08:30:08.859Z,20.31
2019-01-21T08:31:08.863Z,20.31
2019-01-21T08:32:08.871Z,20.33
2019-01-21T08:33:08.873Z,20.34
2019-01-21T08:34:08.878Z,20.28
2019-01-21T08:35:08.886Z,20.35
2019-01-21T08:36:08.887Z,20.31
2019-01-21T08:37:08.892Z,20.34
2019-01-21T08:38:08.896Z,20.39
2019-01-21T08:39:08.903Z,20.39
2019-01-21T08:40:08.908Z,20.47
2019-01-21T08:41:08.914Z,20.50
2019-01-21T08:42:08.919Z,20.42
2019-01-21T08:43:08.922Z,20.49
2019-01-21T08:44:08.926Z,20.50
2019-01-21T08:45:08.931Z,20.50
2019-01-21T08:46:08.937Z,20.49
2019-01-21T08:47:08.943Z,20.47
2019-01-21T08:48:08.948Z,20.54
2019-01-21T08:49:08.951Z,20.42
2019-01-21T08:50:08.956Z,20.43
2019-01-21T08:51:08.961Z,20.43
2019-01-21T08:52:08.966Z,20.53
2019-01-21T08:53:08.972Z,20.47
2019-01-21T08:54:08.976Z,20.39
2019-01-21T08:55:08.981Z,20.41
2019-01-21T08:56:08.984Z,20.35
2019-01-21T08:57:08.992Z,20.41
2019-01-21T08:58:08.997Z,20.35
2019-01-21T08:59:09.000Z,20.31
2019-01-21T09:00:09.004Z,20.35
2019-01-21T09:01:09.011Z,20.33
2019-01-21T09:02:09.014Z,20.38
2019-01-21T09:03:09.020Z,20.31
2019-01-21T09:04:09.024Z,20.28
2019-01-21T09:05:09.030Z,20.30
2019-01-21T09:06:09.035Z,20.31
2019-01-21T09:07:09.039Z,20.33
2019-01-21T09:08:09.048Z,20.35
2019-01-21T09:09:09.048Z,20.34
2019-01-21T09:10:09.055Z,20.33
2019-01-21T09:11:09.060Z,20.31
2019-01-21T09:12:09.064Z,20.35
2019-01-21T09:13:09.069Z,20.39
2019-01-21T09:14:09.075Z,20.34
2019-01-21T09:15:09.078Z,20.33
2019-01-21T09:16:09.084Z,20.38
2019-01-21T09:17:09.089Z,20.39
2019-01-21T09:18:09.095Z,20.49
2019-01-21T09:19:09.099Z,20.46
2019-01-21T09:20:10.833Z,20.49
2019-01-21T09:21:09.108Z,20.46
2019-01-21T09:22:09.115Z,20.50
2019-01-21T09:23:09.118Z,20.61
2019-01-21T09:24:09.124Z,20.49
2019-01-21T09:25:09.130Z,20.53
2019-01-21T09:26:09.134Z,20.56
2019-01-21T09:27:09.138Z,20.53
2019-01-21T09:28:09.142Z,20.61
2019-01-21T09:29:09.148Z,20.58
2019-01-21T09:30:09.154Z,20.61
2019-01-21T09:31:09.157Z,20.62
2019-01-21T09:32:09.162Z,20.59
2019-01-21T09:33:09.188Z,20.64
2019-01-21T09:34:09.174Z,20.62
2019-01-21T09:35:09.178Z,20.64
2019-01-21T09:36:09.183Z,20.59
2019-01-21T09:37:09.188Z,20.59
2019-01-21T09:38:09.193Z,20.65
2019-01-21T09:39:09.203Z,20.65
2019-01-21T09:40:09.203Z,20.59
2019-01-21T09:41:09.208Z,20.66
2019-01-21T09:42:09.212Z,20.62
2019-01-21T09:43:09.220Z,20.62
2019-01-21T09:44:09.240Z,20.68
2019-01-21T09:45:09.228Z,20.64
2019-01-21T09:46:09.234Z,20.64
2019-01-21T09:47:09.238Z,20.56
2019-01-21T09:48:09.242Z,20.66
2019-01-21T09:49:09.248Z,20.72
2019-01-21T09:50:09.253Z,20.69
2019-01-21T09:51:09.259Z,20.69
2019-01-21T09:52:09.266Z,20.65
2019-01-21T09:53:09.273Z,20.64
2019-01-21T09:54:09.275Z,20.53
2019-01-21T09:55:09.278Z,20.53
2019-01-21T09:56:09.284Z,20.47
2019-01-21T09:57:09.289Z,20.50
2019-01-21T09:58:09.295Z,20.49
2019-01-21T09:59:09.299Z,20.49
2019-01-21T10:00:09.304Z,20.49
2019-01-21T10:01:09.311Z,20.39
2019-01-21T10:02:09.314Z,20.33
2019-01-21T10:03:09.320Z,20.31
2019-01-21T10:04:09.325Z,20.30
2019-01-21T10:05:09.352Z,20.33
2019-01-21T10:06:09.333Z,20.38
2019-01-21T10:07:09.339Z,20.42
2019-01-21T10:08:09.342Z,20.33
2019-01-21T10:09:09.349Z,20.35
2019-01-21T10:10:09.354Z,20.33
2019-01-21T10:11:09.360Z,20.35
2019-01-21T10:12:09.364Z,20.30
2019-01-21T10:13:09.371Z,20.34
2019-01-21T10:14:09.377Z,20.28
2019-01-21T10:15:09.379Z,20.30
2019-01-21T10:16:09.384Z,20.33
2019-01-21T10:17:09.389Z,20.33
2019-01-21T10:18:09.397Z,20.41
2019-01-21T10:19:09.398Z,20.34
2019-01-21T10:20:09.404Z,20.38
2019-01-21T10:21:09.409Z,20.39
2019-01-21T10:22:09.414Z,20.50
2019-01-21T10:23:09.420Z,20.51
2019-01-21T10:24:09.424Z,20.41
2019-01-21T10:25:09.428Z,20.39
2019-01-21T10:26:09.435Z,20.49
2019-01-21T10:27:09.440Z,20.42
2019-01-21T10:28:09.443Z,20.46
2019-01-21T10:29:09.449Z,20.46
2019-01-21T10:30:09.453Z,20.49
2019-01-21T10:31:09.460Z,20.43
2019-01-21T10:32:09.464Z,20.47
2019-01-21T10:33:09.468Z,20.51
2019-01-21T10:34:09.476Z,20.50
2019-01-21T10:35:09.479Z,20.53
2019-01-21T10:36:09.483Z,20.64
2019-01-21T10:37:09.490Z,20.62
2019-01-21T10:38:09.495Z,20.64
2019-01-21T10:39:09.499Z,20.64
2019-01-21T10:40:09.503Z,20.64
2019-01-21T10:41:09.510Z,20.65
2019-01-21T10:42:09.512Z,20.71
2019-01-21T10:43:09.523Z,20.74
2019-01-21T10:44:09.523Z,20.76
2019-01-21T10:45:09.529Z,20.64
2019-01-21T10:46:09.533Z,20.76
2019-01-21T10:47:09.538Z,20.77
2019-01-21T10:48:09.543Z,20.83
2019-01-21T10:49:09.547Z,20.84
2019-01-21T10:50:09.553Z,20.72
2019-01-21T10:51:09.559Z,20.76
2019-01-21T10:52:09.562Z,20.83
2019-01-21T10:53:09.569Z,20.83
2019-01-21T10:54:09.573Z,20.83
2019-01-21T10:55:09.580Z,20.91
2019-01-21T10:56:09.585Z,20.84
2019-01-21T10:57:09.590Z,20.77
2019-01-21T10:58:09.594Z,20.84
2019-01-21T10:59:09.600Z,20.83
2019-01-21T11:00:09.605Z,20.83
2019-01-21T11:01:09.609Z,20.87
2019-01-21T11:02:09.614Z,20.86
2019-01-21T11:03:09.621Z,20.87
2019-01-21T11:04:09.680Z,20.90
2019-01-21T11:05:09.630Z,20.77
2019-01-21T11:06:09.634Z,20.77
2019-01-21T11:07:09.641Z,20.80
2019-01-21T11:08:09.646Z,20.79
2019-01-21T11:09:09.649Z,20.80
2019-01-21T11:10:09.656Z,20.84
2019-01-21T11:11:09.661Z,20.79
2019-01-21T11:12:09.665Z,20.74
2019-01-21T11:13:09.671Z,20.79
2019-01-21T11:14:12.473Z,20.74
2019-01-21T11:15:09.681Z,20.84
2019-01-21T11:16:09.685Z,20.80
2019-01-21T11:17:09.691Z,20.76
2019-01-21T11:18:09.695Z,20.77
2019-01-21T11:19:10.717Z,20.83
2019-01-21T11:20:09.708Z,20.80
2019-01-21T11:21:09.825Z,20.79
2019-01-21T11:22:09.718Z,20.74
2019-01-21T11:23:09.722Z,20.76
2019-01-21T11:24:09.725Z,20.71
2019-01-21T11:25:09.731Z,20.66
2019-01-21T11:26:12.967Z,20.72
2019-01-21T11:27:09.743Z,20.72
2019-01-21T11:28:09.748Z,20.61
2019-01-21T11:29:09.753Z,20.61
2019-01-21T11:30:09.758Z,20.61
2019-01-21T11:31:09.764Z,20.56
2019-01-21T11:32:09.770Z,20.61
2019-01-21T11:33:09.774Z,20.50
2019-01-21T11:34:09.779Z,20.53
2019-01-21T11:35:09.786Z,20.58
2019-01-21T11:36:09.787Z,20.53
2019-01-21T11:37:09.795Z,20.54
2019-01-21T11:38:09.841Z,20.59
2019-01-21T11:39:09.805Z,20.58
2019-01-21T11:40:09.811Z,20.56
2019-01-21T11:41:09.815Z,20.62
2019-01-21T11:42:09.821Z,20.61
2019-01-21T11:43:09.824Z,20.49
2019-01-21T11:44:09.831Z,20.62
2019-01-21T11:45:09.834Z,20.59
2019-01-21T11:46:09.842Z,20.61
2019-01-21T11:47:09.852Z,20.59
2019-01-21T11:48:09.848Z,20.64
2019-01-21T11:49:09.856Z,20.62
2019-01-21T11:50:10.598Z,20.62
2019-01-21T11:51:09.867Z,20.61
2019-01-21T11:52:09.869Z,20.61
2019-01-21T11:53:09.876Z,20.59
2019-01-21T11:54:09.880Z,20.62
2019-01-21T11:55:09.886Z,20.61
2019-01-21T11:56:09.891Z,20.65
2019-01-21T11:57:09.897Z,20.65
2019-01-21T11:58:09.900Z,20.62
2019-01-21T11:59:09.906Z,20.66
2019-01-21T12:00:09.911Z,20.65
2019-01-21T12:01:09.918Z,20.61
2019-01-21T12:02:09.923Z,20.61
2019-01-21T12:03:09.928Z,20.62
2019-01-21T12:04:09.931Z,20.66
2019-01-21T12:05:09.940Z,20.66
2019-01-21T12:06:09.943Z,20.64
2019-01-21T12:07:09.947Z,20.64
2019-01-21T12:08:09.953Z,20.61
2019-01-21T12:09:09.956Z,20.54
2019-01-21T12:10:09.963Z,20.56
2019-01-21T12:11:09.967Z,20.58
2019-01-21T12:12:09.972Z,20.64
2019-01-21T12:13:09.976Z,20.58
2019-01-21T12:14:09.982Z,20.58
2019-01-21T12:15:09.987Z,20.59
2019-01-21T12:16:09.991Z,20.61
2019-01-21T12:17:09.995Z,20.61
2019-01-21T12:18:10.004Z,20.62
2019-01-21T12:19:10.009Z,20.68
2019-01-21T12:20:10.011Z,20.62
2019-01-21T12:21:10.018Z,20.65
2019-01-21T12:22:10.027Z,20.59
2019-01-21T12:23:10.027Z,20.62
2019-01-21T12:24:10.035Z,20.53
2019-01-21T12:25:10.037Z,20.61
2019-01-21T12:26:10.041Z,20.61
2019-01-21T12:27:10.047Z,20.54
2019-01-21T12:28:10.050Z,20.56
2019-01-21T12:29:10.056Z,20.61
2019-01-21T12:30:10.062Z,20.56
2019-01-21T12:31:10.067Z,20.53
2019-01-21T12:32:10.070Z,20.61
2019-01-21T12:33:10.076Z,20.58
2019-01-21T12:34:10.083Z,20.64
2019-01-21T12:35:10.087Z,20.61
2019-01-21T12:36:10.091Z,20.54
2019-01-21T12:37:10.099Z,20.61
2019-01-21T12:38:10.101Z,20.53
2019-01-21T12:39:10.114Z,20.46
2019-01-21T12:40:10.113Z,20.50
2019-01-21T12:41:10.115Z,20.54
2019-01-21T12:42:10.123Z,20.53
2019-01-21T12:43:10.126Z,20.50
2019-01-21T12:44:10.131Z,20.53
2019-01-21T12:45:10.135Z,20.59
2019-01-21T12:46:10.141Z,20.46
2019-01-21T12:47:10.148Z,20.51
2019-01-21T12:48:10.151Z,20.43
2019-01-21T12:49:10.157Z,20.46
2019-01-21T12:50:10.162Z,20.47
2019-01-21T12:51:10.166Z,20.49
2019-01-21T12:52:10.185Z,20.47
2019-01-21T12:53:10.175Z,20.47
2019-01-21T12:54:10.180Z,20.42
2019-01-21T12:55:10.185Z,20.38
2019-01-21T12:56:10.195Z,20.35
2019-01-21T12:57:10.195Z,20.41
2019-01-21T12:58:10.200Z,20.38
2019-01-21T12:59:15.826Z,20.39
2019-01-21T13:00:10.210Z,20.38
2019-01-21T13:01:10.215Z,20.39
2019-01-21T13:02:10.221Z,20.42
2019-01-21T13:03:10.225Z,20.50
2019-01-21T13:04:10.231Z,20.51
2019-01-21T13:05:10.237Z,20.46
2019-01-21T13:06:10.239Z,20.39
2019-01-21T13:07:10.244Z,20.43
2019-01-21T13:08:10.249Z,20.50
2019-01-21T13:09:10.254Z,20.54
2019-01-21T13:10:10.260Z,20.42
2019-01-21T13:11:10.263Z,20.47
2019-01-21T13:12:10.269Z,20.42
2019-01-21T13:13:10.278Z,20.50
2019-01-21T13:14:10.278Z,20.54
2019-01-21T13:15:10.283Z,20.46
2019-01-21T13:16:10.289Z,20.49
2019-01-21T13:17:10.308Z,20.49
2019-01-21T13:18:10.298Z,20.50
2019-01-21T13:19:10.303Z,20.43
2019-01-21T13:20:10.313Z,20.43
2019-01-21T13:21:10.315Z,20.49
2019-01-21T13:22:10.318Z,20.50
2019-01-21T13:23:10.321Z,20.46
2019-01-21T13:24:10.327Z,20.46
2019-01-21T13:25:10.332Z,20.49
2019-01-21T13:26:10.337Z,20.49
2019-01-21T13:27:10.342Z,20.41
2019-01-21T13:28:10.346Z,20.47
2019-01-21T13:29:10.352Z,20.49
2019-01-21T13:30:10.356Z,20.41
2019-01-21T13:31:10.361Z,20.47
2019-01-21T13:32:10.364Z,20.49
2019-01-21T13:33:10.371Z,20.47
2019-01-21T13:34:10.378Z,20.46
2019-01-21T13:35:10.380Z,20.46
2019-01-21T13:36:10.386Z,20.47
2019-01-21T13:37:10.390Z,20.46
2019-01-21T13:38:10.393Z,20.47
2019-01-21T13:39:10.404Z,20.35
2019-01-21T13:40:10.404Z,20.35
2019-01-21T13:41:10.410Z,20.35
2019-01-21T13:42:10.415Z,20.33
2019-01-21T13:43:10.461Z,20.38
2019-01-21T13:44:10.424Z,20.31
2019-01-21T13:45:10.428Z,20.34
2019-01-21T13:46:10.434Z,20.42
2019-01-21T13:47:10.438Z,20.39
2019-01-21T13:48:10.443Z,20.39
2019-01-21T13:49:11.657Z,20.38
2019-01-21T13:50:10.458Z,20.38
2019-01-21T13:51:10.462Z,20.33
2019-01-21T13:52:10.465Z,20.30
2019-01-21T13:53:10.468Z,20.30
2019-01-21T13:54:10.473Z,20.33
2019-01-21T13:55:10.487Z,20.30
2019-01-21T13:56:10.480Z,20.30
2019-01-21T13:57:10.487Z,20.33
2019-01-21T13:58:10.491Z,20.38
2019-01-21T13:59:10.497Z,20.34
2019-01-21T14:00:10.500Z,20.28
2019-01-21T14:01:10.507Z,20.31
2019-01-21T14:02:10.515Z,20.28
2019-01-21T14:03:10.516Z,20.33
2019-01-21T14:04:10.519Z,20.31
2019-01-21T14:05:10.528Z,20.33
2019-01-21T14:06:10.532Z,20.33
2019-01-21T14:07:10.537Z,20.34
2019-01-21T14:08:10.539Z,20.33
2019-01-21T14:09:10.546Z,20.31
2019-01-21T14:10:10.550Z,20.31
2019-01-21T14:11:10.556Z,20.35
2019-01-21T14:12:10.559Z,20.34
2019-01-21T14:13:10.563Z,20.38
2019-01-21T14:14:10.570Z,20.27
2019-01-21T14:15:10.574Z,20.28
2019-01-21T14:16:10.580Z,20.38
2019-01-21T14:17:10.584Z,20.28
2019-01-21T14:18:10.589Z,20.31
2019-01-21T14:19:10.593Z,20.30
2019-01-21T14:20:16.606Z,20.35
2019-01-21T14:21:11.217Z,20.35
2019-01-21T14:22:10.607Z,20.35
2019-01-21T14:23:10.614Z,20.33
2019-01-21T14:24:10.615Z,20.27
2019-01-21T14:25:10.623Z,20.27
2019-01-21T14:26:10.630Z,20.33
2019-01-21T14:27:10.633Z,20.31
2019-01-21T14:28:10.635Z,20.25
2019-01-21T14:29:10.691Z,20.20
2019-01-21T14:30:10.663Z,20.16
2019-01-21T14:31:10.653Z,20.25
2019-01-21T14:32:10.658Z,20.20
2019-01-21T14:33:10.659Z,20.20
2019-01-21T14:34:10.715Z,20.15
2019-01-21T14:35:10.669Z,20.24
2019-01-21T14:36:10.674Z,20.28
2019-01-21T14:37:10.678Z,20.33
2019-01-21T14:38:10.684Z,20.25
2019-01-21T14:39:10.691Z,20.28
2019-01-21T14:40:10.694Z,20.34
2019-01-21T14:41:10.703Z,20.28
2019-01-21T14:42:10.906Z,20.30
2019-01-21T14:43:10.708Z,20.27
2019-01-21T14:44:10.711Z,20.27
2019-01-21T14:45:10.719Z,20.28
2019-01-21T14:46:10.722Z,20.21
2019-01-21T14:47:10.728Z,20.16
2019-01-21T14:48:10.733Z,20.18
2019-01-21T14:49:10.737Z,20.20
2019-01-21T14:50:10.742Z,20.23
2019-01-21T14:51:10.774Z,20.18
2019-01-21T14:52:10.754Z,20.27
2019-01-21T14:53:10.763Z,20.21
2019-01-21T14:54:10.775Z,20.21
2019-01-21T14:55:10.769Z,20.13
2019-01-21T14:56:10.775Z,20.24
2019-01-21T14:57:10.786Z,20.25
2019-01-21T14:58:10.787Z,20.16
2019-01-21T14:59:10.796Z,20.21
2019-01-21T15:00:10.790Z,20.25
2019-01-21T15:01:10.821Z,20.16
2019-01-21T15:02:10.799Z,20.24
2019-01-21T15:03:10.842Z,20.16
2019-01-21T15:04:10.808Z,20.24
2019-01-21T15:05:10.848Z,20.24
2019-01-21T15:06:10.817Z,20.18
2019-01-21T15:07:10.826Z,20.20
2019-01-21T15:08:10.842Z,20.16
2019-01-21T15:09:10.836Z,20.23
2019-01-21T15:10:10.841Z,20.23
2019-01-21T15:11:10.928Z,20.16
2019-01-21T15:12:10.920Z,20.27
2019-01-21T15:13:10.898Z,20.23
2019-01-21T15:14:10.855Z,20.18
2019-01-21T15:15:10.947Z,20.20
2019-01-21T15:16:10.886Z,20.21
2019-01-21T15:17:10.869Z,20.24
2019-01-21T15:18:10.962Z,20.13
2019-01-21T15:19:10.895Z,20.21
2019-01-21T15:20:10.883Z,20.21
2019-01-21T15:21:10.941Z,20.16
2019-01-21T15:22:10.971Z,20.16
2019-01-21T15:23:10.901Z,20.12
2019-01-21T15:24:10.945Z,20.08
2019-01-21T15:25:10.921Z,20.08
2019-01-21T15:26:10.916Z,20.16
2019-01-21T15:27:11.180Z,20.25
2019-01-21T15:28:10.923Z,20.16
2019-01-21T15:29:11.033Z,20.06
2019-01-21T15:30:10.969Z,20.09
2019-01-21T15:31:10.965Z,20.18
2019-01-21T15:32:11.032Z,20.13
2019-01-21T15:33:10.956Z,20.08
2019-01-21T15:34:10.950Z,20.13
2019-01-21T15:35:11.017Z,20.12
2019-01-21T15:36:10.992Z,20.15
2019-01-21T15:37:11.006Z,20.10
2019-01-21T15:38:10.976Z,20.06
2019-01-21T15:39:11.087Z,20.12
2019-01-21T15:40:10.978Z,20.08
2019-01-21T15:41:10.983Z,20.09
2019-01-21T15:42:10.986Z,20.16
2019-01-21T15:43:11.106Z,20.09
2019-01-21T15:44:11.044Z,20.25
2019-01-21T15:45:11.014Z,20.18
2019-01-21T15:46:11.110Z,20.20
2019-01-21T15:47:11.087Z,20.23
2019-01-21T15:48:11.014Z,20.20
2019-01-21T15:49:11.019Z,20.21
2019-01-21T15:50:11.022Z,20.27
2019-01-21T15:51:11.028Z,20.16
2019-01-21T15:52:11.032Z,20.16
2019-01-21T15:53:11.037Z,20.20
2019-01-21T15:54:11.042Z,20.35
2019-01-21T15:55:11.048Z,20.24
2019-01-21T15:56:11.073Z,20.23
2019-01-21T15:57:11.055Z,20.23
2019-01-21T15:58:18.740Z,20.24
2019-01-21T15:59:11.067Z,20.21
2019-01-21T16:00:11.069Z,20.21
2019-01-21T16:01:11.074Z,20.09
2019-01-21T16:02:11.078Z,20.13
2019-01-21T16:03:11.087Z,20.09
2019-01-21T16:04:11.140Z,20.09
2019-01-21T16:05:11.092Z,20.16
2019-01-21T16:06:11.098Z,20.05
2019-01-21T16:07:11.103Z,20.09
2019-01-21T16:08:11.107Z,20.09
2019-01-21T16:09:11.120Z,20.05
2019-01-21T16:10:11.116Z,20.06
2019-01-21T16:11:11.208Z,20.09
2019-01-21T16:12:11.127Z,20.09
2019-01-21T16:13:11.131Z,19.95
2019-01-21T16:14:11.167Z,19.97
2019-01-21T16:15:11.141Z,19.98
2019-01-21T16:16:11.144Z,19.98
2019-01-21T16:17:11.150Z,20.08
2019-01-21T16:18:11.154Z,20.10
2019-01-21T16:19:11.157Z,20.10
2019-01-21T16:20:11.162Z,20.08
2019-01-21T16:21:12.880Z,20.10
2019-01-21T16:22:11.172Z,20.21
2019-01-21T16:23:11.178Z,20.09
2019-01-21T16:24:11.179Z,20.09
2019-01-21T16:25:11.186Z,19.94
2019-01-21T16:26:11.192Z,19.88
2019-01-21T16:27:11.195Z,19.84
2019-01-21T16:28:11.199Z,19.88
2019-01-21T16:29:11.205Z,19.95
2019-01-21T16:30:11.212Z,19.93
2019-01-21T16:31:11.212Z,19.88
2019-01-21T16:32:11.218Z,19.97
2019-01-21T16:33:11.223Z,19.91
2019-01-21T16:34:11.228Z,19.91
2019-01-21T16:35:11.233Z,19.91
2019-01-21T16:36:11.235Z,19.95
2019-01-21T16:37:11.241Z,19.97
2019-01-21T16:38:11.245Z,19.91
2019-01-21T16:39:11.250Z,20.08
2019-01-21T16:40:11.254Z,19.91
2019-01-21T16:41:11.259Z,19.90
2019-01-21T16:42:11.265Z,19.91
2019-01-21T16:43:11.268Z,19.98
2019-01-21T16:44:11.272Z,19.91
2019-01-21T16:45:11.279Z,19.97
2019-01-21T16:46:11.281Z,19.98
2019-01-21T16:47:11.287Z,19.95
2019-01-21T16:48:11.301Z,19.94
2019-01-21T16:49:11.297Z,19.93
2019-01-21T16:50:11.302Z,20.00
2019-01-21T16:51:11.306Z,20.12
2019-01-21T16:52:11.311Z,20.15
2019-01-21T16:53:11.317Z,20.08
2019-01-21T16:54:12.764Z,20.08
2019-01-21T16:55:11.323Z,20.09
2019-01-21T16:56:11.329Z,20.12
2019-01-21T16:57:11.331Z,19.98
2019-01-21T16:58:11.338Z,19.95
2019-01-21T16:59:11.342Z,20.00
2019-01-21T17:00:11.345Z,19.97
2019-01-21T17:01:11.351Z,20.08
2019-01-21T17:02:11.355Z,19.95
2019-01-21T17:03:11.363Z,19.95
2019-01-21T17:04:11.364Z,19.97
2019-01-21T17:05:11.368Z,20.00
2019-01-21T17:06:11.374Z,20.06
2019-01-21T17:07:11.381Z,20.08
2019-01-21T17:08:11.383Z,20.02
2019-01-21T17:09:11.392Z,20.06
2019-01-21T17:10:11.393Z,20.08
2019-01-21T17:11:11.402Z,20.10
2019-01-21T17:12:11.401Z,20.09
2019-01-21T17:13:11.406Z,20.10
2019-01-21T17:14:11.409Z,20.09
2019-01-21T17:15:11.414Z,20.09
2019-01-21T17:16:11.419Z,20.09
2019-01-21T17:18:11.430Z,20.08
2019-01-21T17:19:11.433Z,20.02
2019-01-21T17:20:11.439Z,20.06
2019-01-21T17:21:11.443Z,20.06
2019-01-21T17:22:11.449Z,20.06
2019-01-21T17:23:11.452Z,20.09
2019-01-21T17:24:11.457Z,20.09
2019-01-21T17:25:11.462Z,20.02
2019-01-21T17:26:11.467Z,20.00
2019-01-21T17:27:11.471Z,20.05
2019-01-21T17:28:11.476Z,20.08
2019-01-21T17:29:11.479Z,20.12
2019-01-21T17:30:11.484Z,20.08
2019-01-21T17:31:11.490Z,20.08
2019-01-21T17:32:11.499Z,19.97
2019-01-21T17:33:11.498Z,19.93
2019-01-21T17:34:11.503Z,20.00
2019-01-21T17:35:11.507Z,19.95
2019-01-21T17:36:11.510Z,20.03
2019-01-21T17:37:11.516Z,19.98
2019-01-21T17:38:11.521Z,19.95
2019-01-21T17:39:11.526Z,20.00
2019-01-21T17:40:11.530Z,19.94
2019-01-21T17:41:11.535Z,20.02
2019-01-21T17:42:11.540Z,19.98
2019-01-21T17:43:11.545Z,19.98
2019-01-21T17:44:11.547Z,19.98
2019-01-21T17:45:11.551Z,19.97
2019-01-21T17:46:11.557Z,20.00
2019-01-21T17:47:11.562Z,20.05
2019-01-21T17:48:11.566Z,20.02
2019-01-21T17:49:11.572Z,19.97
2019-01-21T17:50:11.586Z,19.98
2019-01-21T17:51:11.582Z,19.98
2019-01-21T17:52:11.584Z,19.91
2019-01-21T17:53:11.603Z,19.94
2019-01-21T17:54:11.594Z,19.91
2019-01-21T17:55:11.600Z,19.79
2019-01-21T17:56:11.602Z,19.70
2019-01-21T17:57:12.086Z,19.72
2019-01-21T17:58:11.613Z,19.73
2019-01-21T17:59:11.617Z,19.78
2019-01-21T18:00:11.620Z,19.75
2019-01-21T18:01:11.626Z,19.76
2019-01-21T18:02:11.630Z,19.83
2019-01-21T18:03:11.634Z,19.79
2019-01-21T18:04:11.638Z,19.76
2019-01-21T18:05:11.643Z,19.76
2019-01-21T18:06:11.650Z,19.78
2019-01-21T18:07:11.653Z,19.83
2019-01-21T18:08:11.656Z,19.72
2019-01-21T18:09:11.663Z,19.73
2019-01-21T18:10:11.667Z,19.75
2019-01-21T18:11:11.671Z,19.78
2019-01-21T18:12:11.675Z,19.72
2019-01-21T18:13:11.679Z,19.78
2019-01-21T18:14:11.686Z,19.80
2019-01-21T18:15:11.697Z,19.76
2019-01-21T18:16:11.692Z,19.75
2019-01-21T18:17:11.700Z,19.76
2019-01-21T18:18:11.735Z,19.84
2019-01-21T18:19:11.707Z,19.86
2019-01-21T18:20:11.723Z,19.86
2019-01-21T18:21:11.715Z,19.84
2019-01-21T18:22:11.720Z,19.88
2019-01-21T18:23:11.727Z,19.98
2019-01-21T18:24:11.778Z,19.95